Eckert, Colorado
Current Conditions -  °F | °C
As of 8:55 PM on Wednesday 22 Oct 2014 (Local Time) from KAJZ Reporting Station
Clear Clear  
Wind Chill: 54°   Ceiling: Unl
Heat Index: 54°   Visibility: 10mi
Dew Point: 36°   Wind: 8mph
Humidity: 51%   Direction: 50°NE
Pressure: 30.19"   Gusts: NA
Location:  38.84°N, 107.96°W
Report Text: KAJZ 230255Z AUTO 05007KT 10SM CLR 12/02 A3019 RMK AO2 T01200020
Loading
Personal Weather Stations






























Interactive Weather Map
Tropical Storm Tracking
New forecast layout! Learn more

10-Day Weather Forecast

Advertisements
Track Severe Weather on mobile